createdAt,value
2018-09-08T00:00:27.419Z,0.00
2018-09-08T00:01:27.460Z,0.00
2018-09-08T00:02:27.498Z,0.00
2018-09-08T00:03:27.542Z,0.00
2018-09-08T00:04:27.575Z,0.00
2018-09-08T00:05:27.620Z,0.00
2018-09-08T00:06:27.654Z,0.00
2018-09-08T00:07:27.693Z,0.00
2018-09-08T00:08:27.732Z,0.00
2018-09-08T00:09:27.770Z,0.00
2018-09-08T00:10:27.808Z,0.00
2018-09-08T00:11:27.856Z,0.00
2018-09-08T00:12:27.888Z,0.00
2018-09-08T00:13:27.925Z,0.00
2018-09-08T00:14:27.964Z,0.00
2018-09-08T00:15:28.005Z,0.00
2018-09-08T00:16:28.042Z,0.00
2018-09-08T00:17:28.131Z,0.00
2018-09-08T00:18:28.122Z,0.00
2018-09-08T00:19:28.161Z,0.00
2018-09-08T00:20:28.199Z,0.00
2018-09-08T00:21:28.254Z,0.00
2018-09-08T00:22:28.276Z,0.00
2018-09-08T00:23:28.315Z,0.00
2018-09-08T00:24:28.354Z,0.00
2018-09-08T00:25:28.393Z,0.00
2018-09-08T00:26:28.439Z,0.00
2018-09-08T00:27:28.472Z,0.00
2018-09-08T00:28:28.510Z,0.00
2018-09-08T00:29:28.550Z,0.00
2018-09-08T00:30:28.589Z,0.00
2018-09-08T00:31:28.637Z,0.00
2018-09-08T00:32:28.669Z,0.00
2018-09-08T00:33:28.704Z,0.00
2018-09-08T00:34:28.744Z,0.00
2018-09-08T00:35:28.786Z,0.00
2018-09-08T00:36:28.822Z,0.00
2018-09-08T00:37:28.861Z,0.00
2018-09-08T00:38:28.930Z,0.00
2018-09-08T00:39:28.943Z,0.00
2018-09-08T00:40:28.978Z,0.00
2018-09-08T00:41:29.016Z,0.00
2018-09-08T00:42:29.056Z,0.00
2018-09-08T00:43:29.096Z,0.00
2018-09-08T00:44:29.135Z,0.00
2018-09-08T00:45:29.172Z,0.00
2018-09-08T00:46:29.210Z,0.00
2018-09-08T00:47:29.247Z,0.00
2018-09-08T00:48:29.289Z,0.00
2018-09-08T00:49:29.326Z,0.00
2018-09-08T00:50:29.367Z,0.00
2018-09-08T00:51:29.405Z,0.00
2018-09-08T00:52:29.446Z,0.00
2018-09-08T00:53:29.482Z,0.00
2018-09-08T00:54:29.521Z,0.00
2018-09-08T00:55:29.562Z,0.00
2018-09-08T00:56:29.600Z,0.00
2018-09-08T00:57:29.646Z,0.00
2018-09-08T00:58:29.676Z,0.00
2018-09-08T00:59:29.716Z,0.00
2018-09-08T01:00:29.756Z,0.00
2018-09-08T01:01:29.794Z,0.00
2018-09-08T01:02:29.833Z,0.00
2018-09-08T01:03:29.871Z,0.00
2018-09-08T01:04:29.962Z,0.00
2018-09-08T01:05:29.949Z,0.00
2018-09-08T01:06:29.997Z,0.00
2018-09-08T01:07:30.036Z,0.00
2018-09-08T01:08:30.066Z,0.00
2018-09-08T01:09:30.104Z,0.00
2018-09-08T01:10:30.145Z,0.00
2018-09-08T01:11:30.188Z,0.00
2018-09-08T01:12:30.222Z,0.00
2018-09-08T01:13:30.261Z,0.00
2018-09-08T01:14:30.302Z,0.00
2018-09-08T01:15:30.340Z,0.00
2018-09-08T01:16:30.377Z,0.00
2018-09-08T01:17:30.414Z,0.00
2018-09-08T01:18:30.454Z,0.00
2018-09-08T01:19:30.494Z,0.00
2018-09-08T01:20:30.531Z,0.00
2018-09-08T01:21:30.572Z,0.00
2018-09-08T01:22:30.612Z,0.00
2018-09-08T01:23:30.648Z,0.00
2018-09-08T01:24:30.686Z,0.00
2018-09-08T01:25:30.725Z,0.00
2018-09-08T01:26:30.765Z,0.00
2018-09-08T01:27:30.812Z,0.00
2018-09-08T01:28:30.843Z,0.00
2018-09-08T01:29:30.881Z,0.00
2018-09-08T01:30:31.020Z,0.00
2018-09-08T01:31:30.961Z,0.00
2018-09-08T01:32:30.998Z,0.00
2018-09-08T01:33:31.040Z,0.00
2018-09-08T01:34:31.074Z,0.00
2018-09-08T01:35:31.114Z,0.00
2018-09-08T01:36:31.159Z,0.00
2018-09-08T01:37:31.192Z,0.00
2018-09-08T01:38:31.233Z,0.00
2018-09-08T01:39:31.268Z,0.00
2018-09-08T01:40:31.306Z,0.00
2018-09-08T01:41:31.345Z,0.00
2018-09-08T01:42:31.385Z,0.00
2018-09-08T01:43:31.423Z,0.00
2018-09-08T01:44:31.462Z,0.00
2018-09-08T01:45:31.500Z,0.00
2018-09-08T01:46:31.540Z,0.00
2018-09-08T01:47:31.582Z,0.00
2018-09-08T01:48:31.615Z,0.00
2018-09-08T01:49:31.660Z,0.00
2018-09-08T01:50:31.693Z,0.00
2018-09-08T01:51:31.733Z,0.00
2018-09-08T01:52:31.771Z,0.00
2018-09-08T01:53:31.810Z,0.00
2018-09-08T01:54:31.853Z,0.00
2018-09-08T01:55:31.888Z,0.00
2018-09-08T01:56:31.934Z,0.00
2018-09-08T01:57:31.966Z,0.00
2018-09-08T01:58:32.005Z,0.00
2018-09-08T01:59:32.044Z,0.00
2018-09-08T02:00:32.081Z,0.00
2018-09-08T02:01:32.123Z,0.00
2018-09-08T02:02:32.158Z,0.00
2018-09-08T02:03:32.198Z,0.00
2018-09-08T02:04:32.243Z,0.00
2018-09-08T02:05:32.275Z,0.00
2018-09-08T02:06:32.315Z,0.00
2018-09-08T02:07:32.354Z,0.00
2018-09-08T02:08:32.390Z,0.00
2018-09-08T02:09:32.429Z,0.00
2018-09-08T02:10:32.469Z,0.00
2018-09-08T02:11:32.508Z,0.00
2018-09-08T02:12:32.546Z,0.00
2018-09-08T02:13:32.585Z,0.00
2018-09-08T02:14:32.624Z,0.00
2018-09-08T02:15:32.663Z,0.00
2018-09-08T02:16:32.701Z,0.00
2018-09-08T02:17:32.749Z,0.00
2018-09-08T02:18:32.777Z,0.00
2018-09-08T02:19:32.817Z,0.00
2018-09-08T02:20:32.856Z,0.00
2018-09-08T02:21:32.894Z,0.00
2018-09-08T02:22:32.931Z,0.00
2018-09-08T02:23:32.973Z,0.00
2018-09-08T02:24:33.010Z,0.00
2018-09-08T02:25:33.108Z,0.00
2018-09-08T02:26:33.087Z,0.00
2018-09-08T02:27:33.135Z,0.00
2018-09-08T02:28:33.163Z,0.00
2018-09-08T02:29:33.203Z,0.00
2018-09-08T02:30:33.243Z,0.00
2018-09-08T02:31:33.281Z,0.00
2018-09-08T02:32:33.328Z,0.00
2018-09-08T02:33:33.372Z,0.00
2018-09-08T02:34:33.397Z,0.00
2018-09-08T02:35:33.438Z,0.00
2018-09-08T02:36:33.476Z,0.00
2018-09-08T02:37:33.515Z,0.00
2018-09-08T02:38:33.557Z,0.00
2018-09-08T02:39:33.593Z,0.00
2018-09-08T02:40:33.633Z,0.00
2018-09-08T02:41:33.670Z,0.00
2018-09-08T02:42:33.708Z,0.00
2018-09-08T02:43:33.760Z,0.00
2018-09-08T02:44:33.788Z,0.00
2018-09-08T02:45:33.827Z,0.00
2018-09-08T02:46:33.864Z,0.00
2018-09-08T02:47:33.904Z,0.00
2018-09-08T02:48:33.943Z,0.00
2018-09-08T02:49:33.980Z,0.00
2018-09-08T02:50:34.019Z,0.00
2018-09-08T02:51:34.059Z,0.00
2018-09-08T02:52:34.097Z,0.00
2018-09-08T02:53:34.137Z,0.00
2018-09-08T02:54:34.184Z,0.00
2018-09-08T02:55:34.216Z,0.00
2018-09-08T02:56:34.254Z,0.00
2018-09-08T02:57:34.292Z,0.00
2018-09-08T02:58:34.330Z,0.00
2018-09-08T02:59:34.371Z,0.00
2018-09-08T03:00:34.431Z,0.00
2018-09-08T03:01:34.471Z,0.00
2018-09-08T03:02:34.488Z,0.00
2018-09-08T03:03:34.526Z,0.00
2018-09-08T03:04:34.564Z,0.00
2018-09-08T03:05:34.605Z,0.00
2018-09-08T03:06:34.643Z,0.00
2018-09-08T03:07:34.683Z,0.00
2018-09-08T03:08:34.720Z,0.00
2018-09-08T03:09:34.760Z,0.00
2018-09-08T03:10:34.799Z,0.00
2018-09-08T03:11:34.944Z,0.00
2018-09-08T03:12:34.879Z,0.00
2018-09-08T03:13:34.917Z,0.00
2018-09-08T03:14:34.959Z,0.00
2018-09-08T03:15:34.994Z,0.00
2018-09-08T03:16:35.036Z,0.00
2018-09-08T03:17:35.074Z,0.00
2018-09-08T03:18:35.162Z,0.00
2018-09-08T03:19:35.151Z,0.00
2018-09-08T03:20:35.197Z,0.00
2018-09-08T03:21:35.237Z,0.00
2018-09-08T03:22:35.268Z,0.00
2018-09-08T03:23:35.307Z,0.00
2018-09-08T03:24:35.346Z,0.00
2018-09-08T03:25:35.385Z,0.00
2018-09-08T03:26:35.424Z,0.00
2018-09-08T03:27:35.465Z,0.00
2018-09-08T03:28:35.506Z,0.00
2018-09-08T03:29:35.542Z,0.00
2018-09-08T03:30:35.587Z,0.00
2018-09-08T03:31:35.632Z,0.00
2018-09-08T03:32:35.660Z,0.00
2018-09-08T03:33:35.700Z,0.00
2018-09-08T03:34:35.740Z,0.00
2018-09-08T03:35:35.778Z,0.00
2018-09-08T03:36:35.818Z,0.00
2018-09-08T03:37:35.858Z,0.00
2018-09-08T03:38:35.895Z,0.00
2018-09-08T03:39:35.935Z,0.00
2018-09-08T03:40:35.973Z,0.00
2018-09-08T03:41:36.014Z,0.00
2018-09-08T03:42:36.052Z,0.00
2018-09-08T03:43:36.093Z,0.00
2018-09-08T03:44:36.132Z,0.00
2018-09-08T03:45:36.178Z,0.00
2018-09-08T03:46:36.208Z,0.00
2018-09-08T03:47:36.249Z,0.00
2018-09-08T03:48:36.287Z,0.00
2018-09-08T03:49:36.329Z,0.00
2018-09-08T03:50:36.367Z,0.00
2018-09-08T03:51:36.406Z,0.00
2018-09-08T03:52:36.444Z,0.00
2018-09-08T03:53:36.482Z,0.00
2018-09-08T03:54:36.524Z,0.00
2018-09-08T03:55:36.564Z,0.00
2018-09-08T03:56:36.605Z,0.00
2018-09-08T03:57:36.648Z,0.00
2018-09-08T03:58:36.683Z,0.00
2018-09-08T03:59:36.720Z,0.00
2018-09-08T04:00:36.761Z,0.00
2018-09-08T04:01:36.797Z,0.00
2018-09-08T04:02:36.840Z,0.00
2018-09-08T04:03:36.877Z,0.00
2018-09-08T04:04:36.916Z,0.00
2018-09-08T04:05:37.061Z,0.00
2018-09-08T04:06:36.996Z,0.00
2018-09-08T04:07:37.034Z,0.00
2018-09-08T04:08:37.075Z,0.00
2018-09-08T04:09:37.118Z,0.00
2018-09-08T04:10:37.153Z,0.00
2018-09-08T04:11:37.194Z,0.00
2018-09-08T04:12:37.231Z,0.00
2018-09-08T04:13:37.270Z,0.00
2018-09-08T04:14:37.310Z,4.00
2018-09-08T04:15:37.350Z,4.00
2018-09-08T04:16:37.394Z,0.00
2018-09-08T04:17:37.427Z,4.00
2018-09-08T04:18:37.468Z,4.00
2018-09-08T04:19:37.507Z,4.00
2018-09-08T04:20:37.545Z,4.00
2018-09-08T04:21:37.585Z,4.00
2018-09-08T04:22:37.623Z,8.00
2018-09-08T04:23:37.665Z,8.00
2018-09-08T04:24:37.702Z,12.00
2018-09-08T04:25:37.742Z,12.00
2018-09-08T04:26:37.782Z,16.00
2018-09-08T04:27:37.822Z,16.00
2018-09-08T04:28:37.861Z,20.00
2018-09-08T04:29:37.967Z,20.00
2018-09-08T04:30:37.940Z,28.00
2018-09-08T04:31:37.978Z,32.00
2018-09-08T04:32:38.019Z,40.00
2018-09-08T04:33:38.056Z,44.00
2018-09-08T04:34:38.096Z,52.00
2018-09-08T04:35:38.136Z,60.00
2018-09-08T04:36:38.180Z,72.00
2018-09-08T04:37:38.219Z,80.00
2018-09-08T04:38:38.254Z,92.00
2018-09-08T04:39:38.295Z,108.00
2018-09-08T04:40:38.336Z,112.00
2018-09-08T04:41:38.371Z,124.00
2018-09-08T04:42:38.412Z,152.00
2018-09-08T04:43:38.451Z,164.00
2018-09-08T04:44:38.492Z,180.00
2018-09-08T04:45:38.530Z,188.00
2018-09-08T04:46:38.594Z,200.00
2018-09-08T04:47:38.609Z,212.00
2018-09-08T04:48:38.647Z,232.00
2018-09-08T04:49:38.689Z,256.00
2018-09-08T04:50:38.725Z,300.00
2018-09-08T04:51:38.765Z,324.00
2018-09-08T04:52:38.822Z,336.00
2018-09-08T04:53:38.864Z,356.00
2018-09-08T04:54:38.885Z,372.00
2018-09-08T04:55:38.929Z,384.00
2018-09-08T04:56:38.961Z,404.00
2018-09-08T04:57:39.000Z,440.00
2018-09-08T04:58:39.041Z,464.00
2018-09-08T04:59:39.082Z,492.00
2018-09-08T05:00:39.121Z,540.00
2018-09-08T05:01:39.158Z,548.00
2018-09-08T05:02:39.196Z,580.00
2018-09-08T05:03:39.240Z,620.00
2018-09-08T05:04:39.277Z,648.00
2018-09-08T05:05:39.317Z,672.00
2018-09-08T05:06:39.353Z,696.00
2018-09-08T05:07:39.395Z,716.00
2018-09-08T05:08:39.432Z,732.00
2018-09-08T05:09:39.473Z,748.00
2018-09-08T05:10:39.510Z,752.00
2018-09-08T05:11:39.556Z,776.00
2018-09-08T05:12:39.590Z,824.00
2018-09-08T05:13:39.758Z,840.00
2018-09-08T05:14:39.821Z,900.00
2018-09-08T05:15:39.707Z,920.00
2018-09-08T05:16:39.748Z,1012.00
2018-09-08T05:17:39.784Z,996.00
2018-09-08T05:18:39.825Z,1032.00
2018-09-08T05:19:39.867Z,1088.00
2018-09-08T05:20:39.904Z,1136.00
2018-09-08T05:21:39.943Z,1200.00
2018-09-08T05:22:39.982Z,1240.00
2018-09-08T05:23:40.020Z,1296.00
2018-09-08T05:24:40.059Z,1356.00
2018-09-08T05:25:40.097Z,1408.00
2018-09-08T05:26:40.137Z,1416.00
2018-09-08T05:27:40.235Z,1444.00
2018-09-08T05:28:40.334Z,1472.00
2018-09-08T05:29:40.254Z,1460.00
2018-09-08T05:30:40.294Z,1432.00
2018-09-08T05:31:40.333Z,1420.00
2018-09-08T05:32:40.373Z,1464.00
2018-09-08T05:33:40.416Z,1516.00
2018-09-08T05:34:40.452Z,1496.00
2018-09-08T05:35:40.492Z,1496.00
2018-09-08T05:36:40.542Z,1596.00
2018-09-08T05:37:40.570Z,1696.00
2018-09-08T05:38:40.609Z,1780.00
2018-09-08T05:39:40.652Z,1816.00
2018-09-08T05:40:40.692Z,1972.00
2018-09-08T05:41:40.728Z,1972.00
2018-09-08T05:42:40.766Z,2024.00
2018-09-08T05:43:40.811Z,2024.00
2018-09-08T05:44:40.845Z,2048.00
2018-09-08T05:45:40.885Z,2124.00
2018-09-08T05:46:40.923Z,2264.00
2018-09-08T05:47:40.964Z,2272.00
2018-09-08T05:48:41.028Z,2456.00
2018-09-08T05:49:41.041Z,2588.00
2018-09-08T05:50:41.081Z,2616.00
2018-09-08T05:51:41.121Z,2404.00
2018-09-08T05:52:41.159Z,2332.00
2018-09-08T05:53:41.197Z,2320.00
2018-09-08T05:54:41.238Z,2448.00
2018-09-08T05:55:41.280Z,2456.00
2018-09-08T05:56:41.317Z,2716.00
2018-09-08T05:57:41.357Z,2672.00
2018-09-08T05:58:41.426Z,2540.00
2018-09-08T05:59:41.435Z,2580.00
2018-09-08T06:00:41.472Z,2764.00
2018-09-08T06:01:41.512Z,3072.00
2018-09-08T06:02:41.551Z,3020.00
2018-09-08T06:03:41.591Z,3392.00
2018-09-08T06:04:41.630Z,3552.00
2018-09-08T06:05:41.668Z,3288.00
2018-09-08T06:06:41.710Z,3412.00
2018-09-08T06:07:41.751Z,3492.00
2018-09-08T06:08:41.949Z,3680.00
2018-09-08T06:09:41.828Z,3376.00
2018-09-08T06:10:41.873Z,3844.00
2018-09-08T06:11:41.908Z,3948.00
2018-09-08T06:12:41.944Z,3760.00
2018-09-08T06:13:41.993Z,3712.00
2018-09-08T06:14:42.055Z,3660.00
2018-09-08T06:15:42.066Z,3848.00
2018-09-08T06:16:42.107Z,3872.00
2018-09-08T06:17:42.142Z,4032.00
2018-09-08T06:18:42.184Z,4292.00
2018-09-08T06:19:42.276Z,4332.00
2018-09-08T06:20:42.261Z,4336.00
2018-09-08T06:21:42.301Z,4572.00
2018-09-08T06:22:42.342Z,4604.00
2018-09-08T06:23:42.383Z,5456.00
2018-09-08T06:24:42.419Z,5744.00
2018-09-08T06:25:42.530Z,6740.00
2018-09-08T06:26:42.499Z,6496.00
2018-09-08T06:27:42.545Z,5860.00
2018-09-08T06:28:42.693Z,6468.00
2018-09-08T06:29:42.617Z,6788.00
2018-09-08T06:30:42.660Z,7700.00
2018-09-08T06:31:42.749Z,7612.00
2018-09-08T06:32:42.735Z,7288.00
2018-09-08T06:33:42.888Z,6988.00
2018-09-08T06:34:42.820Z,6412.00
2018-09-08T06:35:42.855Z,6464.00
2018-09-08T06:36:42.897Z,6280.00
2018-09-08T06:37:42.933Z,6248.00
2018-09-08T06:38:42.975Z,6172.00
2018-09-08T06:39:43.015Z,6564.00
2018-09-08T06:40:43.060Z,6272.00
2018-09-08T06:41:43.093Z,5756.00
2018-09-08T06:42:43.133Z,6312.00
2018-09-08T06:43:43.173Z,6268.00
2018-09-08T06:44:43.275Z,6348.00
2018-09-08T06:45:43.264Z,6580.00
2018-09-08T06:46:43.292Z,6848.00
2018-09-08T06:47:43.334Z,6780.00
2018-09-08T06:48:43.375Z,7032.00
2018-09-08T06:49:43.412Z,7456.00
2018-09-08T06:50:43.446Z,7464.00
2018-09-08T06:51:43.499Z,7944.00
2018-09-08T06:52:43.536Z,8484.00
2018-09-08T06:53:43.572Z,9440.00
2018-09-08T06:54:43.610Z,10168.00
2018-09-08T06:55:43.652Z,10184.00
2018-09-08T06:56:43.689Z,8868.00
2018-09-08T06:57:43.752Z,9416.00
2018-09-08T06:58:43.769Z,9832.00
2018-09-08T06:59:43.809Z,9308.00
2018-09-08T07:00:43.852Z,8820.00
2018-09-08T07:01:43.889Z,9132.00
2018-09-08T07:02:43.931Z,9808.00
2018-09-08T07:03:43.972Z,9356.00
2018-09-08T07:04:44.019Z,8312.00
2018-09-08T07:05:44.049Z,8672.00
2018-09-08T07:06:44.104Z,8080.00
2018-09-08T07:07:44.130Z,7592.00
2018-09-08T07:08:44.170Z,7564.00
2018-09-08T07:09:44.209Z,7312.00
2018-09-08T07:10:44.252Z,6176.00
2018-09-08T07:11:44.292Z,6132.00
2018-09-08T07:12:44.330Z,5644.00
2018-09-08T07:13:44.373Z,5828.00
2018-09-08T07:14:44.411Z,4568.00
2018-09-08T07:15:44.452Z,4948.00
2018-09-08T07:16:44.498Z,4512.00
2018-09-08T07:17:44.535Z,4736.00
2018-09-08T07:18:44.622Z,4532.00
2018-09-08T07:19:44.611Z,4512.00
2018-09-08T07:20:44.650Z,4328.00
2018-09-08T07:21:44.689Z,4392.00
2018-09-08T07:22:44.734Z,4500.00
2018-09-08T07:23:44.771Z,4228.00
2018-09-08T07:24:44.813Z,4220.00
2018-09-08T07:25:44.849Z,4220.00
2018-09-08T07:26:44.897Z,4176.00
2018-09-08T07:27:44.929Z,4168.00
2018-09-08T07:28:44.973Z,4152.00
2018-09-08T07:29:45.011Z,4144.00
2018-09-08T07:30:45.049Z,4140.00
2018-09-08T07:31:45.093Z,4140.00
2018-09-08T07:32:45.132Z,4132.00
2018-09-08T07:33:45.170Z,4124.00
2018-09-08T07:34:45.210Z,4120.00
2018-09-08T07:35:45.251Z,4124.00
2018-09-08T07:36:45.289Z,4112.00
2018-09-08T07:37:45.440Z,4108.00
2018-09-08T07:38:45.375Z,4104.00
2018-09-08T07:39:45.411Z,4100.00
2018-09-08T07:40:45.449Z,4104.00
2018-09-08T07:41:45.492Z,4100.00
2018-09-08T07:42:45.529Z,4100.00
2018-09-08T07:43:45.569Z,4088.00
2018-09-08T07:44:45.609Z,4092.00
2018-09-08T07:45:45.657Z,4092.00
2018-09-08T07:46:45.693Z,4096.00
2018-09-08T07:47:45.731Z,4092.00
2018-09-08T07:48:45.775Z,4080.00
2018-09-08T07:49:45.812Z,4076.00
2018-09-08T07:50:45.852Z,4072.00
2018-09-08T07:51:45.892Z,4072.00
2018-09-08T07:52:45.933Z,4068.00
2018-09-08T07:53:46.044Z,4064.00
2018-09-08T07:54:46.009Z,4060.00
2018-09-08T07:55:46.049Z,4052.00
2018-09-08T07:56:46.087Z,4036.00
2018-09-08T07:57:46.126Z,4024.00
2018-09-08T07:58:46.171Z,4024.00
2018-09-08T07:59:46.208Z,4020.00
2018-09-08T08:00:46.248Z,4008.00
2018-09-08T08:01:46.288Z,4000.00
2018-09-08T08:02:46.327Z,3988.00
2018-09-08T08:03:46.373Z,3988.00
2018-09-08T08:04:46.411Z,3992.00
2018-09-08T08:05:46.512Z,3980.00
2018-09-08T08:06:46.563Z,3972.00
2018-09-08T08:07:46.537Z,3964.00
2018-09-08T08:08:46.567Z,3952.00
2018-09-08T08:09:46.607Z,3952.00
2018-09-08T08:10:46.650Z,3948.00
2018-09-08T08:11:46.721Z,3940.00
2018-09-08T08:12:46.730Z,3924.00
2018-09-08T08:13:46.765Z,3924.00
2018-09-08T08:14:46.808Z,3924.00
2018-09-08T08:15:46.847Z,3920.00
2018-09-08T08:16:46.893Z,3924.00
2018-09-08T08:17:47.312Z,3916.00
2018-09-08T08:18:46.975Z,3912.00
2018-09-08T08:19:47.011Z,3904.00
2018-09-08T08:20:47.049Z,3908.00
2018-09-08T08:21:47.089Z,3904.00
2018-09-08T08:22:47.127Z,3900.00
2018-09-08T08:23:47.167Z,3908.00
2018-09-08T08:24:47.211Z,3916.00
2018-09-08T08:25:47.261Z,3924.00
2018-09-08T08:26:47.288Z,3936.00
2018-09-08T08:27:47.343Z,3940.00
2018-09-08T08:28:47.368Z,3936.00
2018-09-08T08:29:47.408Z,3932.00
2018-09-08T08:30:47.449Z,3936.00
2018-09-08T08:31:47.489Z,3932.00
2018-09-08T08:32:47.536Z,3928.00
2018-09-08T08:33:47.569Z,3932.00
2018-09-08T08:34:47.618Z,3940.00
2018-09-08T08:35:47.653Z,3940.00
2018-09-08T08:36:47.692Z,3936.00
2018-09-08T08:37:47.730Z,3936.00
2018-09-08T08:38:47.769Z,3944.00
2018-09-08T08:39:47.811Z,3952.00
2018-09-08T08:40:47.849Z,3960.00
2018-09-08T08:41:47.892Z,3960.00
2018-09-08T08:42:47.938Z,3972.00
2018-09-08T08:43:47.970Z,3984.00
2018-09-08T08:44:48.021Z,3988.00
2018-09-08T08:45:48.052Z,4004.00
2018-09-08T08:46:48.103Z,4016.00
2018-09-08T08:47:48.133Z,4032.00
2018-09-08T08:48:48.180Z,4052.00
2018-09-08T08:49:48.291Z,4080.00
2018-09-08T08:50:48.260Z,4104.00
2018-09-08T08:51:48.296Z,4108.00
2018-09-08T08:52:48.362Z,4124.00
2018-09-08T08:53:48.372Z,4136.00
2018-09-08T08:54:48.413Z,4156.00
2018-09-08T08:55:48.459Z,4184.00
2018-09-08T08:56:48.499Z,4192.00
2018-09-08T08:57:48.555Z,4204.00
2018-09-08T08:58:48.574Z,4200.00
2018-09-08T08:59:48.616Z,4200.00
2018-09-08T09:00:48.670Z,4208.00
2018-09-08T09:01:48.704Z,4220.00
2018-09-08T09:02:48.737Z,4216.00
2018-09-08T09:03:48.787Z,4244.00
2018-09-08T09:04:48.818Z,4256.00
2018-09-08T09:05:48.859Z,4276.00
2018-09-08T09:06:48.901Z,4316.00
2018-09-08T09:07:48.946Z,4324.00
2018-09-08T09:08:49.439Z,4344.00
2018-09-08T09:09:49.026Z,4392.00
2018-09-08T09:10:49.072Z,4456.00
2018-09-08T09:11:49.542Z,4516.00
2018-09-08T09:12:49.222Z,4572.00
2018-09-08T09:13:49.183Z,4620.00
2018-09-08T09:14:49.229Z,4668.00
2018-09-08T09:15:49.266Z,4724.00
2018-09-08T09:16:49.309Z,4768.00
2018-09-08T09:17:49.357Z,4812.00
2018-09-08T09:18:49.800Z,4824.00
2018-09-08T09:19:49.430Z,4824.00
2018-09-08T09:20:49.475Z,4900.00
2018-09-08T09:21:49.519Z,4904.00
2018-09-08T09:22:49.554Z,4940.00
2018-09-08T09:23:49.604Z,4976.00
2018-09-08T09:24:50.062Z,5092.00
2018-09-08T09:25:49.672Z,5168.00
2018-09-08T09:26:49.714Z,5248.00
2018-09-08T09:27:49.800Z,5340.00
2018-09-08T09:28:49.794Z,5356.00
2018-09-08T09:29:49.837Z,5436.00
2018-09-08T09:30:49.878Z,5488.00
2018-09-08T09:31:50.399Z,5512.00
2018-09-08T09:32:50.064Z,5540.00
2018-09-08T09:33:50.016Z,5564.00
2018-09-08T09:34:50.042Z,5580.00
2018-09-08T09:35:50.092Z,5584.00
2018-09-08T09:36:50.127Z,5612.00
2018-09-08T09:37:50.165Z,5616.00
2018-09-08T09:38:50.205Z,5660.00
2018-09-08T09:39:50.247Z,5704.00
2018-09-08T09:40:50.286Z,5828.00
2018-09-08T09:41:50.328Z,5964.00
2018-09-08T09:42:50.371Z,6096.00
2018-09-08T09:43:50.412Z,6188.00
2018-09-08T09:44:50.452Z,6308.00
2018-09-08T09:45:50.495Z,6464.00
2018-09-08T09:46:50.535Z,6492.00
2018-09-08T09:47:50.578Z,6520.00
2018-09-08T09:48:50.618Z,6624.00
2018-09-08T09:49:50.666Z,6696.00
2018-09-08T09:50:50.698Z,6760.00
2018-09-08T09:51:50.743Z,6812.00
2018-09-08T09:52:50.780Z,6904.00
2018-09-08T09:53:50.822Z,7040.00
2018-09-08T09:54:50.865Z,7112.00
2018-09-08T09:55:50.911Z,7188.00
2018-09-08T09:56:50.952Z,7264.00
2018-09-08T09:57:51.024Z,7364.00
2018-09-08T09:58:51.029Z,7448.00
2018-09-08T09:59:51.071Z,7580.00
2018-09-08T10:00:51.110Z,7672.00
2018-09-08T10:01:51.152Z,7772.00
2018-09-08T10:02:51.194Z,7920.00
2018-09-08T10:03:51.241Z,8104.00
2018-09-08T10:04:51.283Z,8252.00
2018-09-08T10:05:51.321Z,8340.00
2018-09-08T10:06:51.360Z,8488.00
2018-09-08T10:07:51.407Z,8564.00
2018-09-08T10:08:51.441Z,8708.00
2018-09-08T10:09:51.483Z,8752.00
2018-09-08T10:10:51.525Z,8840.00
2018-09-08T10:11:51.567Z,8936.00
2018-09-08T10:12:51.607Z,9008.00
2018-09-08T10:13:51.649Z,9100.00
2018-09-08T10:14:51.694Z,9172.00
2018-09-08T10:15:51.733Z,9252.00
2018-09-08T10:16:51.775Z,9400.00
2018-09-08T10:17:51.816Z,9596.00
2018-09-08T10:18:51.858Z,9844.00
2018-09-08T10:19:51.900Z,10052.00
2018-09-08T10:20:51.940Z,10260.00
2018-09-08T10:21:51.983Z,10564.00
2018-09-08T10:22:52.024Z,10820.00
2018-09-08T10:24:04.347Z,11044.00
2018-09-08T10:24:52.109Z,11328.00
2018-09-08T10:25:52.149Z,11644.00
2018-09-08T10:26:52.193Z,11964.00
2018-09-08T10:27:52.241Z,12252.00
2018-09-08T10:28:52.274Z,12516.00
2018-09-08T10:29:52.842Z,12668.00
2018-09-08T10:30:52.359Z,12772.00
2018-09-08T10:31:52.403Z,12796.00
2018-09-08T10:32:52.454Z,12748.00
2018-09-08T10:33:52.500Z,12672.00
2018-09-08T10:34:52.592Z,12532.00
2018-09-08T10:35:52.569Z,12296.00
2018-09-08T10:36:52.616Z,11980.00
2018-09-08T10:37:52.665Z,11696.00
2018-09-08T10:38:52.695Z,11564.00
2018-09-08T10:39:52.745Z,11636.00
2018-09-08T10:40:52.779Z,11612.00
2018-09-08T10:41:52.830Z,11784.00
2018-09-08T10:42:52.867Z,12032.00
2018-09-08T10:43:52.907Z,12348.00
2018-09-08T10:44:52.949Z,12788.00
2018-09-08T10:45:52.990Z,13272.00
2018-09-08T10:46:53.031Z,13172.00
2018-09-08T10:47:53.075Z,13280.00
2018-09-08T10:48:53.117Z,13660.00
2018-09-08T10:49:53.162Z,13756.00
2018-09-08T10:50:53.252Z,13576.00
2018-09-08T10:51:53.244Z,13128.00
2018-09-08T10:52:53.285Z,12568.00
2018-09-08T10:53:53.330Z,12000.00
2018-09-08T10:54:53.370Z,11604.00
2018-09-08T10:55:53.413Z,11256.00
2018-09-08T10:56:53.473Z,11112.00
2018-09-08T10:57:53.498Z,11108.00
2018-09-08T10:58:53.539Z,11140.00
2018-09-08T10:59:53.591Z,11192.00
2018-09-08T11:00:53.624Z,11148.00
2018-09-08T11:01:53.840Z,11116.00
2018-09-08T11:02:54.128Z,11164.00
2018-09-08T11:03:53.755Z,11272.00
2018-09-08T11:04:53.802Z,11292.00
2018-09-08T11:05:53.842Z,11388.00
2018-09-08T11:06:53.880Z,11408.00
2018-09-08T11:07:53.930Z,11512.00
2018-09-08T11:08:53.967Z,11900.00
2018-09-08T11:09:54.010Z,12060.00
2018-09-08T11:10:54.053Z,11920.00
2018-09-08T11:11:54.092Z,12080.00
2018-09-08T11:12:54.138Z,12304.00
2018-09-08T11:13:54.179Z,12256.00
2018-09-08T11:14:54.221Z,12292.00
2018-09-08T11:15:54.287Z,12136.00
2018-09-08T11:16:54.314Z,12396.00
2018-09-08T11:17:54.360Z,12440.00
2018-09-08T11:18:54.483Z,12292.00
2018-09-08T11:19:54.434Z,12176.00
2018-09-08T11:20:54.475Z,12052.00
2018-09-08T11:21:54.519Z,11896.00
2018-09-08T11:22:54.561Z,11760.00
2018-09-08T11:23:54.606Z,11684.00
2018-09-08T11:24:54.645Z,11728.00
2018-09-08T11:25:54.690Z,11848.00
2018-09-08T11:26:54.733Z,12128.00
2018-09-08T11:27:54.776Z,12400.00
2018-09-08T11:28:54.819Z,12716.00
2018-09-08T11:29:54.861Z,13008.00
2018-09-08T11:30:54.904Z,13032.00
2018-09-08T11:31:54.956Z,12924.00
2018-09-08T11:32:55.004Z,12792.00
2018-09-08T11:33:55.041Z,12556.00
2018-09-08T11:34:55.076Z,12192.00
2018-09-08T11:35:55.117Z,11940.00
2018-09-08T11:36:55.165Z,11560.00
2018-09-08T11:37:55.230Z,11332.00
2018-09-08T11:38:55.248Z,11304.00
2018-09-08T11:39:55.292Z,11300.00
2018-09-08T11:40:55.340Z,11232.00
2018-09-08T11:41:55.376Z,10876.00
2018-09-08T11:42:55.426Z,10840.00
2018-09-08T11:43:55.465Z,10928.00
2018-09-08T11:44:55.542Z,11032.00
2018-09-08T11:45:55.549Z,11096.00
2018-09-08T11:46:55.590Z,11132.00
2018-09-08T11:47:55.632Z,10976.00
2018-09-08T11:48:55.673Z,10596.00
2018-09-08T11:49:55.719Z,10248.00
2018-09-08T11:50:55.760Z,9912.00
2018-09-08T11:51:55.804Z,9704.00
2018-09-08T11:52:55.940Z,9376.00
2018-09-08T11:53:55.890Z,9196.00
2018-09-08T11:54:55.934Z,9000.00
2018-09-08T11:55:55.973Z,9172.00
2018-09-08T11:56:56.016Z,8960.00
2018-09-08T11:57:56.060Z,9128.00
2018-09-08T11:58:56.102Z,9416.00
2018-09-08T11:59:56.147Z,9632.00
2018-09-08T12:00:56.195Z,9656.00
2018-09-08T12:01:56.242Z,9484.00
2018-09-08T12:02:56.353Z,9180.00
2018-09-08T12:03:56.316Z,8912.00
2018-09-08T12:04:56.358Z,8796.00
2018-09-08T12:05:56.401Z,8524.00
2018-09-08T12:06:56.444Z,8240.00
2018-09-08T12:07:56.506Z,8108.00
2018-09-08T12:08:56.544Z,8008.00
2018-09-08T12:09:56.583Z,8064.00
2018-09-08T12:10:56.615Z,8200.00
2018-09-08T12:11:56.658Z,8476.00
2018-09-08T12:12:56.701Z,8708.00
2018-09-08T12:13:56.783Z,9068.00
2018-09-08T12:14:56.805Z,9476.00
2018-09-08T12:15:56.846Z,9932.00
2018-09-08T12:16:56.880Z,10220.00
2018-09-08T12:17:56.920Z,11136.00
2018-09-08T12:18:56.999Z,11560.00
2018-09-08T12:19:57.001Z,11648.00
2018-09-08T12:20:57.043Z,11912.00
2018-09-08T12:21:57.085Z,11604.00
2018-09-08T12:22:57.132Z,11024.00
2018-09-08T12:23:57.183Z,10400.00
2018-09-08T12:24:57.216Z,9836.00
2018-09-08T12:25:57.257Z,9316.00
2018-09-08T12:26:57.301Z,8836.00
2018-09-08T12:27:57.348Z,8376.00
2018-09-08T12:28:57.386Z,7836.00